Time;durP1;ratioP1;P1;durP2;ratioP2;P2;SDS_P1;SDS_P2;PMS_P1;PMS_P2;Temp;Humidity;BMP_temperature;BMP_pressure;BME280_temperature;BME280_humidity;BME280_pressure;Samples;Min_cycle;Max_cycle;Signal;HPM_P1;HPM_P2
2022/06/08 00:00:46;;;;;;;2.90;2.55;;;;;;;;;;5041635;28;20041;-61
2022/06/08 00:03:18;;;;;;;4.57;3.30;;;;;;;;;;5045757;28;20036;-61
2022/06/08 00:05:44;;;;;;;4.00;3.17;;;;;;;;;;5051683;28;20053;-62
2022/06/08 00:08:10;;;;;;;4.10;3.40;;;;;;;;;;5050809;28;20413;-61
2022/06/08 00:10:36;;;;;;;5.25;4.13;;;;;;;;;;5060868;28;20060;-61
2022/06/08 00:13:03;;;;;;;5.65;4.22;;;;;;;;;;5040729;28;20040;-61
2022/06/08 00:15:29;;;;;;;4.75;3.60;;;;;;;;;;5024087;28;20075;-61
2022/06/08 00:17:56;;;;;;;6.47;4.97;;;;;;;;;;5052267;28;20553;-62
2022/06/08 00:20:22;;;;;;;8.23;5.43;;;;;;;;;;5040669;28;20556;-61
2022/06/08 00:22:48;;;;;;;8.32;5.07;;;;;;;;;;5045807;28;20053;-61
2022/06/08 00:25:15;;;;;;;7.95;5.82;;;;;;;;;;5045705;28;20394;-62
2022/06/08 00:27:41;;;;;;;8.43;5.68;;;;;;;;;;5041973;28;20048;-61
2022/06/08 00:30:08;;;;;;;7.78;6.00;;;;;;;;;;5042871;28;20041;-61
2022/06/08 00:32:34;;;;;;;9.57;6.32;;;;;;;;;;5042723;28;20092;-61
2022/06/08 00:35:01;;;;;;;8.68;5.53;;;;;;;;;;5046591;28;20037;-61
2022/06/08 00:37:27;;;;;;;9.25;6.80;;;;;;;;;;5046513;28;20112;-61
2022/06/08 00:39:53;;;;;;;9.98;6.53;;;;;;;;;;5046079;28;20481;-62
2022/06/08 00:42:20;;;;;;;9.15;6.57;;;;;;;;;;5032079;28;20045;-61
2022/06/08 00:44:57;;;;;;;10.32;6.70;;;;;;;;;;5049154;28;20048;-62
2022/06/08 00:47:25;;;;;;;9.13;6.63;;;;;;;;;;5043751;28;20037;-62
2022/06/08 00:49:53;;;;;;;11.77;8.52;;;;;;;;;;5046421;28;20041;-61
2022/06/08 00:52:20;;;;;;;11.32;8.18;;;;;;;;;;5028018;28;20037;-62
2022/06/08 00:54:51;;;;;;;15.95;9.85;;;;;;;;;;5044273;28;20037;-62
2022/06/08 00:57:20;;;;;;;12.48;8.48;;;;;;;;;;5049950;28;20115;-61
2022/06/08 00:59:50;;;;;;;10.13;7.70;;;;;;;;;;5047333;28;20172;-61
2022/06/08 01:02:16;;;;;;;11.38;8.43;;;;;;;;;;5022158;28;20052;-61
2022/06/08 01:04:42;;;;;;;12.20;8.63;;;;;;;;;;5028892;28;20057;-61
2022/06/08 01:07:13;;;;;;;12.90;9.00;;;;;;;;;;5048068;28;20554;-61
2022/06/08 01:09:39;;;;;;;13.52;8.93;;;;;;;;;;5024200;28;20048;-61
2022/06/08 01:12:12;;;;;;;11.43;8.18;;;;;;;;;;5037044;28;20048;-62
2022/06/08 01:14:38;;;;;;;12.80;8.98;;;;;;;;;;5043346;28;20494;-61
2022/06/08 01:17:12;;;;;;;13.77;9.43;;;;;;;;;;5047310;28;20397;-61
2022/06/08 01:19:39;;;;;;;13.10;8.93;;;;;;;;;;5050492;28;20071;-62
2022/06/08 01:22:06;;;;;;;14.63;9.02;;;;;;;;;;5054419;28;20037;-61
2022/06/08 01:24:34;;;;;;;13.98;8.88;;;;;;;;;;5036941;28;20033;-62
2022/06/08 01:27:12;;;;;;;12.07;9.25;;;;;;;;;;5046192;28;20068;-62
2022/06/08 01:29:42;;;;;;;13.20;9.30;;;;;;;;;;5032273;28;20040;-62
2022/06/08 01:32:17;;;;;;;15.70;9.07;;;;;;;;;;5044228;28;20417;-62
2022/06/08 01:35:01;;;;;;;12.63;8.98;;;;;;;;;;5039762;28;20296;-61
2022/06/08 01:37:30;;;;;;;13.75;9.02;;;;;;;;;;5053319;28;20033;-61
2022/06/08 01:39:59;;;;;;;16.63;10.50;;;;;;;;;;5058718;28;20045;-61
2022/06/08 01:42:31;;;;;;;17.05;10.60;;;;;;;;;;5047989;28;20033;-62
2022/06/08 01:47:56;;;;;;;18.35;12.43;;;;;;;;;;5048686;28;20490;-61
2022/06/08 01:50:41;;;;;;;18.92;13.00;;;;;;;;;;5052386;28;20037;-62
2022/06/08 01:53:27;;;;;;;18.88;13.00;;;;;;;;;;5033048;28;20037;-62
2022/06/08 01:55:58;;;;;;;22.35;13.77;;;;;;;;;;5040021;28;20082;-61
2022/06/08 01:58:29;;;;;;;20.38;13.45;;;;;;;;;;5057815;28;20579;-61
2022/06/08 02:01:13;;;;;;;22.35;14.20;;;;;;;;;;5050751;28;20460;-61
2022/06/08 02:03:46;;;;;;;22.98;14.57;;;;;;;;;;5046912;28;20041;-62
2022/06/08 02:06:21;;;;;;;21.48;13.57;;;;;;;;;;5061298;28;20044;-62
2022/06/08 02:08:47;;;;;;;22.30;14.18;;;;;;;;;;5066492;22;20049;-65
2022/06/08 02:11:24;;;;;;;22.77;14.05;;;;;;;;;;5052598;28;20405;-65
2022/06/08 02:13:54;;;;;;;21.08;13.82;;;;;;;;;;5053940;28;20548;-65
2022/06/08 02:16:23;;;;;;;21.87;14.67;;;;;;;;;;5048217;28;20029;-65
2022/06/08 02:18:54;;;;;;;23.33;14.98;;;;;;;;;;5051433;28;20704;-65
2022/06/08 02:21:20;;;;;;;;;;;;;;;;;;5051981;28;20090;-65
2022/06/08 02:23:46;;;;;;;21.77;13.45;;;;;;;;;;5047079;28;19917;-65
2022/06/08 02:26:14;;;;;;;20.63;13.45;;;;;;;;;;5051466;28;20045;-65
2022/06/08 02:29:04;;;;;;;22.83;14.48;;;;;;;;;;5051030;28;20124;-65
2022/06/08 02:31:33;;;;;;;22.35;14.77;;;;;;;;;;5035232;28;20048;-65
2022/06/08 02:36:49;;;;;;;22.52;13.93;;;;;;;;;;5052620;28;20045;-65
2022/06/08 02:39:17;;;;;;;19.33;13.23;;;;;;;;;;5051501;28;20072;-65
2022/06/08 02:41:47;;;;;;;22.30;14.02;;;;;;;;;;5046774;28;20036;-65
2022/06/08 02:44:16;;;;;;;21.63;13.88;;;;;;;;;;5053306;28;20095;-65
2022/06/08 02:46:45;;;;;;;23.13;13.63;;;;;;;;;;5051081;28;20037;-65
2022/06/08 02:49:12;;;;;;;22.67;14.73;;;;;;;;;;5051773;28;20044;-65
2022/06/08 02:51:41;;;;;;;23.80;15.25;;;;;;;;;;5052174;28;20148;-65
2022/06/08 02:54:12;;;;;;;21.85;14.43;;;;;;;;;;5052348;28;21873;-65
2022/06/08 02:56:42;;;;;;;21.35;14.82;;;;;;;;;;5049571;28;20029;-65
2022/06/08 02:59:18;;;;;;;20.70;14.25;;;;;;;;;;5049235;28;20484;-65
2022/06/08 03:01:51;;;;;;;22.77;15.20;;;;;;;;;;5038954;28;20044;-65
2022/06/08 03:04:20;;;;;;;24.15;14.32;;;;;;;;;;5051355;28;20122;-65
2022/06/08 03:06:51;;;;;;;23.90;15.13;;;;;;;;;;5051316;28;20111;-65
2022/06/08 03:09:18;;;;;;;21.40;15.10;;;;;;;;;;5047604;28;20044;-65
2022/06/08 03:11:45;;;;;;;23.77;14.88;;;;;;;;;;5052662;28;20097;-65
2022/06/08 03:14:13;;;;;;;21.42;14.38;;;;;;;;;;5051067;28;20048;-65
2022/06/08 03:16:41;;;;;;;21.55;13.85;;;;;;;;;;5049575;28;20079;-65
2022/06/08 03:19:07;;;;;;;22.00;14.73;;;;;;;;;;5051995;28;20045;-65
2022/06/08 03:21:34;;;;;;;20.73;13.48;;;;;;;;;;5052971;28;20045;-65
2022/06/08 03:24:00;;;;;;;22.58;14.35;;;;;;;;;;5047534;28;20038;-65
2022/06/08 03:26:27;;;;;;;21.38;13.57;;;;;;;;;;5051393;28;20529;-65
2022/06/08 03:28:54;;;;;;;21.67;14.32;;;;;;;;;;5046878;28;20041;-65
2022/06/08 03:31:20;;;;;;;23.13;14.88;;;;;;;;;;5050588;28;20041;-65
2022/06/08 03:33:46;;;;;;;22.75;14.32;;;;;;;;;;5052605;28;20040;-65
2022/06/08 03:36:12;;;;;;;20.23;13.85;;;;;;;;;;5049755;28;20445;-65
2022/06/08 03:38:38;;;;;;;24.23;15.18;;;;;;;;;;5050540;28;20445;-65
2022/06/08 03:41:04;;;;;;;25.38;13.65;;;;;;;;;;5049636;28;20402;-65
2022/06/08 03:43:30;;;;;;;26.35;15.13;;;;;;;;;;5051475;28;20037;-65
2022/06/08 03:45:58;;;;;;;22.52;14.05;;;;;;;;;;5051838;28;20048;-65
2022/06/08 03:48:25;;;;;;;23.35;15.02;;;;;;;;;;5051425;28;20398;-65
2022/06/08 03:50:52;;;;;;;25.75;14.57;;;;;;;;;;5051220;28;20060;-65
2022/06/08 03:53:23;;;;;;;24.65;14.70;;;;;;;;;;5048179;28;20051;-65
2022/06/08 03:55:49;;;;;;;;;;;;;;;;;;5048268;28;20549;-65
2022/06/08 03:58:16;;;;;;;25.15;14.35;;;;;;;;;;5046499;28;20019;-65
2022/06/08 04:00:43;;;;;;;24.77;15.20;;;;;;;;;;5044285;28;20041;-65
2022/06/08 04:03:09;;;;;;;23.83;15.65;;;;;;;;;;5045707;28;20046;-65
2022/06/08 04:05:36;;;;;;;23.23;14.77;;;;;;;;;;5048204;28;20041;-65
2022/06/08 04:08:03;;;;;;;22.77;15.15;;;;;;;;;;5048784;28;20502;-64
2022/06/08 04:10:29;;;;;;;27.40;15.88;;;;;;;;;;5048890;28;20048;-65
2022/06/08 04:12:55;;;;;;;25.38;15.52;;;;;;;;;;5047976;28;20033;-65
2022/06/08 04:18:06;;;;;;;22.58;14.98;;;;;;;;;;5044501;28;20119;-65
2022/06/08 04:20:33;;;;;;;27.23;15.63;;;;;;;;;;5050877;28;20041;-65
2022/06/08 04:22:59;;;;;;;25.70;14.93;;;;;;;;;;5050839;28;20040;-65
2022/06/08 04:25:25;;;;;;;26.17;15.77;;;;;;;;;;5048363;28;20044;-65
2022/06/08 04:27:51;;;;;;;23.67;14.57;;;;;;;;;;5050141;28;20044;-65
2022/06/08 04:30:17;;;;;;;24.25;15.60;;;;;;;;;;5050187;28;20414;-65
2022/06/08 04:32:43;;;;;;;23.92;14.70;;;;;;;;;;5049331;28;20033;-65
2022/06/08 04:35:09;;;;;;;28.45;14.60;;;;;;;;;;5051123;28;20043;-65
2022/06/08 04:37:37;;;;;;;24.73;14.38;;;;;;;;;;5050225;28;20113;-65
2022/06/08 04:40:05;;;;;;;24.80;15.02;;;;;;;;;;5047893;28;20072;-65
2022/06/08 04:42:31;;;;;;;24.55;14.57;;;;;;;;;;5049162;28;20048;-65
2022/06/08 04:44:57;;;;;;;23.90;14.32;;;;;;;;;;5050923;28;20434;-65
2022/06/08 04:47:23;;;;;;;20.95;14.82;;;;;;;;;;5049273;28;20055;-65
2022/06/08 04:49:49;;;;;;;24.02;14.57;;;;;;;;;;5051124;28;20128;-65
2022/06/08 04:52:15;;;;;;;23.42;14.80;;;;;;;;;;5051688;28;20051;-65
2022/06/08 04:54:41;;;;;;;25.80;16.08;;;;;;;;;;5041836;28;20043;-65
2022/06/08 04:57:07;;;;;;;24.02;14.93;;;;;;;;;;5050790;28;20123;-65
2022/06/08 04:59:33;;;;;;;23.02;15.15;;;;;;;;;;5048393;28;20041;-65
2022/06/08 05:01:59;;;;;;;26.40;15.73;;;;;;;;;;5048682;28;20071;-65
2022/06/08 05:04:25;;;;;;;29.70;16.10;;;;;;;;;;5049503;28;20037;-65
2022/06/08 05:06:51;;;;;;;26.73;16.17;;;;;;;;;;5049154;28;20080;-65
2022/06/08 05:09:17;;;;;;;27.10;16.63;;;;;;;;;;5052508;28;20171;-65
2022/06/08 05:11:43;;;;;;;26.98;16.23;;;;;;;;;;5054215;28;20502;-65
2022/06/08 05:14:09;;;;;;;28.83;16.60;;;;;;;;;;5054036;28;20040;-66
2022/06/08 05:16:35;;;;;;;30.10;17.25;;;;;;;;;;5054229;28;20039;-66
2022/06/08 05:19:01;;;;;;;28.42;17.70;;;;;;;;;;5050986;28;20049;-65
2022/06/08 05:21:27;;;;;;;26.25;17.02;;;;;;;;;;5045316;28;20051;-66
2022/06/08 05:23:53;;;;;;;29.58;17.13;;;;;;;;;;5048426;28;20040;-65
2022/06/08 05:26:19;;;;;;;28.38;17.10;;;;;;;;;;5050753;28;20045;-65
2022/06/08 05:28:45;;;;;;;30.38;17.83;;;;;;;;;;5052817;28;20694;-65
2022/06/08 05:31:11;;;;;;;27.77;17.17;;;;;;;;;;5050746;28;20118;-65
2022/06/08 05:33:38;;;;;;;28.67;18.15;;;;;;;;;;5053360;28;20044;-65
2022/06/08 05:36:04;;;;;;;26.13;16.77;;;;;;;;;;5049364;28;20033;-66
2022/06/08 05:38:30;;;;;;;27.70;17.77;;;;;;;;;;5052061;28;20060;-66
2022/06/08 05:40:57;;;;;;;28.85;17.50;;;;;;;;;;5052384;28;20072;-66
2022/06/08 05:43:23;;;;;;;29.38;17.00;;;;;;;;;;5048634;28;20047;-66
2022/06/08 05:45:50;;;;;;;29.92;17.38;;;;;;;;;;5054148;28;20045;-66
2022/06/08 05:48:16;;;;;;;26.80;17.73;;;;;;;;;;5052098;28;20037;-66
2022/06/08 05:50:42;;;;;;;28.67;17.25;;;;;;;;;;5047485;28;20071;-66
2022/06/08 05:53:09;;;;;;;28.02;17.65;;;;;;;;;;5051867;28;20041;-66
2022/06/08 05:55:35;;;;;;;29.83;18.20;;;;;;;;;;5049112;28;20064;-66
2022/06/08 05:58:01;;;;;;;29.42;18.30;;;;;;;;;;5051303;28;20048;-66
2022/06/08 06:00:33;;;;;;;27.30;17.92;;;;;;;;;;5049650;28;20036;-66
2022/06/08 06:02:59;;;;;;;29.92;17.60;;;;;;;;;;5044209;28;20049;-66
2022/06/08 06:05:27;;;;;;;28.50;17.60;;;;;;;;;;5053993;28;20120;-66
2022/06/08 06:07:54;;;;;;;27.23;17.10;;;;;;;;;;5052278;28;20087;-65
2022/06/08 06:10:21;;;;;;;29.88;18.33;;;;;;;;;;5049482;28;20041;-66
2022/06/08 06:12:48;;;;;;;26.75;16.92;;;;;;;;;;5050449;28;20049;-65
2022/06/08 06:15:15;;;;;;;31.70;17.88;;;;;;;;;;5050464;28;20043;-66
2022/06/08 06:17:41;;;;;;;25.38;17.30;;;;;;;;;;5051449;28;20045;-66
2022/06/08 06:20:08;;;;;;;25.60;17.23;;;;;;;;;;5052570;28;20048;-65
2022/06/08 06:22:35;;;;;;;28.23;17.25;;;;;;;;;;5051400;28;20430;-65
2022/06/08 06:25:01;;;;;;;26.98;17.88;;;;;;;;;;5048693;28;20512;-66
2022/06/08 06:27:27;;;;;;;25.60;16.77;;;;;;;;;;5050632;28;20032;-66
2022/06/08 06:29:53;;;;;;;28.20;17.00;;;;;;;;;;5052060;28;20473;-65
2022/06/08 06:32:30;;;;;;;25.08;16.92;;;;;;;;;;5053446;28;20048;-65
2022/06/08 06:34:57;;;;;;;31.77;18.20;;;;;;;;;;5045288;28;20410;-65
2022/06/08 06:37:23;;;;;;;28.35;17.75;;;;;;;;;;5052493;28;20134;-66
2022/06/08 06:39:49;;;;;;;25.88;16.92;;;;;;;;;;5049389;28;20045;-66
2022/06/08 06:42:17;;;;;;;23.90;16.80;;;;;;;;;;5049364;28;20041;-66
2022/06/08 06:44:43;;;;;;;25.58;16.23;;;;;;;;;;5047323;28;20063;-66
2022/06/08 06:47:09;;;;;;;22.35;15.98;;;;;;;;;;5049747;28;20106;-66
2022/06/08 06:49:35;;;;;;;23.52;15.25;;;;;;;;;;5048310;28;21023;-63
2022/06/08 06:52:01;;;;;;;23.40;14.85;;;;;;;;;;5052385;28;20044;-63
2022/06/08 06:54:27;;;;;;;19.77;13.98;;;;;;;;;;5042020;28;20140;-65
2022/06/08 06:56:53;;;;;;;18.80;13.60;;;;;;;;;;5050746;28;20095;-65
2022/06/08 06:59:19;;;;;;;18.73;13.55;;;;;;;;;;5049712;28;20033;-65
2022/06/08 07:01:46;;;;;;;20.77;13.55;;;;;;;;;;5046486;28;20075;-65
2022/06/08 07:04:12;;;;;;;20.13;13.65;;;;;;;;;;5053056;28;20045;-65
2022/06/08 07:06:38;;;;;;;20.48;13.80;;;;;;;;;;5048306;28;20041;-65
2022/06/08 07:09:04;;;;;;;20.50;14.02;;;;;;;;;;5047669;28;20490;-65
2022/06/08 07:11:33;;;;;;;22.33;13.55;;;;;;;;;;5053476;28;20048;-65
2022/06/08 07:14:00;;;;;;;19.90;13.18;;;;;;;;;;5045626;28;20048;-65
2022/06/08 07:16:26;;;;;;;19.20;13.57;;;;;;;;;;5051279;28;20094;-65
2022/06/08 07:18:52;;;;;;;20.90;13.23;;;;;;;;;;5052690;28;20048;-65
2022/06/08 07:21:18;;;;;;;19.73;13.05;;;;;;;;;;5050784;28;20048;-65
2022/06/08 07:23:45;;;;;;;18.80;13.07;;;;;;;;;;5034891;28;20441;-65
2022/06/08 07:26:11;;;;;;;17.92;12.43;;;;;;;;;;5050866;28;20040;-65
2022/06/08 07:28:38;;;;;;;17.65;12.05;;;;;;;;;;5046772;28;20041;-65
2022/06/08 07:31:04;;;;;;;17.17;11.68;;;;;;;;;;5047837;28;20048;-65
2022/06/08 07:33:30;;;;;;;17.00;11.40;;;;;;;;;;5051238;28;20072;-65
2022/06/08 07:35:57;;;;;;;14.88;10.50;;;;;;;;;;5044156;28;20044;-65
2022/06/08 07:38:23;;;;;;;16.02;9.98;;;;;;;;;;5052419;28;20486;-65
2022/06/08 07:40:49;;;;;;;15.25;10.48;;;;;;;;;;5052577;28;20505;-65
2022/06/08 07:43:15;;;;;;;15.27;11.10;;;;;;;;;;5043206;28;20037;-65
2022/06/08 07:45:41;;;;;;;13.57;9.73;;;;;;;;;;5052440;28;20044;-65
2022/06/08 07:50:52;;;;;;;11.70;8.68;;;;;;;;;;5045487;28;20506;-65
2022/06/08 07:53:18;;;;;;;12.23;7.93;;;;;;;;;;5052611;28;20042;-65
2022/06/08 07:55:45;;;;;;;10.80;7.25;;;;;;;;;;5051440;28;20040;-65
2022/06/08 07:58:11;;;;;;;8.85;6.72;;;;;;;;;;5043515;28;20056;-65
2022/06/08 08:00:37;;;;;;;9.27;7.28;;;;;;;;;;5051760;28;20483;-65
2022/06/08 08:03:03;;;;;;;11.07;7.07;;;;;;;;;;5044004;28;20060;-65
2022/06/08 08:05:29;;;;;;;10.00;7.15;;;;;;;;;;5051354;28;20517;-65
2022/06/08 08:07:56;;;;;;;11.15;6.80;;;;;;;;;;5081927;22;20515;-62
2022/06/08 08:10:23;;;;;;;10.70;6.75;;;;;;;;;;5108683;28;20036;-62
2022/06/08 08:12:50;;;;;;;10.82;7.80;;;;;;;;;;5112775;28;20039;-62
2022/06/08 08:15:17;;;;;;;12.93;7.05;;;;;;;;;;5111921;28;20545;-62
2022/06/08 08:17:43;;;;;;;11.07;7.53;;;;;;;;;;5101192;28;20035;-63
2022/06/08 08:20:10;;;;;;;11.18;7.78;;;;;;;;;;5104569;28;20159;-63
2022/06/08 08:22:36;;;;;;;13.68;7.45;;;;;;;;;;5099189;28;20042;-63
2022/06/08 08:25:02;;;;;;;9.80;6.53;;;;;;;;;;5102650;28;20039;-63
2022/06/08 08:27:28;;;;;;;9.48;6.68;;;;;;;;;;5107330;28;20039;-63
2022/06/08 08:29:54;;;;;;;12.10;6.75;;;;;;;;;;5109863;28;20442;-63
2022/06/08 08:32:20;;;;;;;10.18;6.15;;;;;;;;;;5109094;28;20043;-63
2022/06/08 08:34:46;;;;;;;11.30;7.20;;;;;;;;;;5111941;28;20089;-62
2022/06/08 08:37:12;;;;;;;9.90;6.75;;;;;;;;;;5092970;28;20044;-62
2022/06/08 08:39:38;;;;;;;10.13;6.93;;;;;;;;;;5107872;28;20071;-62
2022/06/08 08:42:21;;;;;;;10.20;7.18;;;;;;;;;;5093807;28;20043;-65
2022/06/08 08:44:52;;;;;;;10.13;7.22;;;;;;;;;;5110575;28;20085;-65
2022/06/08 08:47:18;;;;;;;8.10;6.45;;;;;;;;;;5094243;27;20064;-65
2022/06/08 08:49:48;;;;;;;8.48;6.03;;;;;;;;;;5088897;28;20476;-65
2022/06/08 08:52:29;;;;;;;7.90;5.72;;;;;;;;;;5100431;28;20035;-65
2022/06/08 08:55:15;;;;;;;9.32;6.55;;;;;;;;;;5101964;28;20613;-65
2022/06/08 08:57:54;;;;;;;10.18;6.75;;;;;;;;;;5092409;28;20062;-65
2022/06/08 09:00:40;;;;;;;8.38;6.60;;;;;;;;;;5102822;28;20039;-64
2022/06/08 09:03:30;;;;;;;10.38;6.40;;;;;;;;;;5083877;28;20133;-64
2022/06/08 09:06:00;;;;;;;12.23;7.90;;;;;;;;;;5052156;28;20440;-64
2022/06/08 09:08:26;;;;;;;14.95;8.15;;;;;;;;;;5105365;28;20048;-64
2022/06/08 09:10:55;;;;;;;9.98;7.22;;;;;;;;;;5108516;28;20046;-64
2022/06/08 09:13:24;;;;;;;9.90;6.97;;;;;;;;;;5103204;28;20488;-64
2022/06/08 09:15:54;;;;;;;9.93;7.15;;;;;;;;;;5104464;28;20042;-64
2022/06/08 09:18:31;;;;;;;9.68;7.60;;;;;;;;;;5106293;28;20040;-64
2022/06/08 09:20:58;;;;;;;9.10;6.30;;;;;;;;;;5097791;28;20040;-64
2022/06/08 09:23:27;;;;;;;8.45;5.20;;;;;;;;;;5105060;28;20070;-64
2022/06/08 09:26:03;;;;;;;8.98;5.53;;;;;;;;;;5104023;28;20040;-64
2022/06/08 09:28:31;;;;;;;6.13;4.75;;;;;;;;;;5102098;28;20093;-64
2022/06/08 09:30:57;;;;;;;6.72;5.00;;;;;;;;;;5089089;28;20090;-64
2022/06/08 09:33:27;;;;;;;7.32;4.90;;;;;;;;;;5111606;28;20036;-64
2022/06/08 09:35:55;;;;;;;8.27;5.05;;;;;;;;;;5103877;28;20040;-64
2022/06/08 09:38:23;;;;;;;7.10;4.85;;;;;;;;;;5105675;28;20040;-64
2022/06/08 09:40:55;;;;;;;8.13;4.60;;;;;;;;;;5108249;28;20523;-64
2022/06/08 09:43:40;;;;;;;8.23;4.40;;;;;;;;;;5104552;28;20824;-64
2022/06/08 09:51:25;;;;;;;6.97;4.22;;;;;;;;;;5107871;28;20493;-65
2022/06/08 09:52:02;;;;;;;5.95;4.20;;;;;;;;;;5106542;28;20077;-64
2022/06/08 09:54:37;;;;;;;5.60;3.80;;;;;;;;;;5108103;28;20064;-64
2022/06/08 09:57:24;;;;;;;6.57;3.83;;;;;;;;;;5112051;28;20031;-64
2022/06/08 10:00:09;;;;;;;5.47;3.22;;;;;;;;;;5089021;28;20819;-65
2022/06/08 10:02:41;;;;;;;7.00;3.58;;;;;;;;;;5084510;28;20122;-64
2022/06/08 10:05:13;;;;;;;7.18;3.58;;;;;;;;;;5104945;28;20066;-64
2022/06/08 10:07:39;;;;;;;7.03;4.38;;;;;;;;;;5107413;28;20035;-65
2022/06/08 10:10:23;;;;;;;6.45;4.28;;;;;;;;;;5094794;28;20450;-64
2022/06/08 10:13:14;;;;;;;5.53;4.40;;;;;;;;;;5106513;28;20084;-64
2022/06/08 10:15:46;;;;;;;7.65;4.43;;;;;;;;;;5093142;28;20504;-65
2022/06/08 10:18:12;;;;;;;6.40;4.60;;;;;;;;;;5101854;28;20146;-65
2022/06/08 10:20:39;;;;;;;7.35;4.80;;;;;;;;;;5101766;28;20180;-65
2022/06/08 10:23:28;;;;;;;6.60;4.55;;;;;;;;;;5114420;28;20123;-64
2022/06/08 10:25:58;;;;;;;7.05;4.20;;;;;;;;;;5047187;28;20465;-64
2022/06/08 10:28:33;;;;;;;8.52;4.25;;;;;;;;;;5112119;28;20100;-65
2022/06/08 10:31:18;;;;;;;11.40;4.47;;;;;;;;;;5099728;28;20040;-64
2022/06/08 10:33:48;;;;;;;5.25;3.80;;;;;;;;;;5104498;28;20484;-65
2022/06/08 10:36:14;;;;;;;8.73;3.90;;;;;;;;;;5113854;28;20036;-65
2022/06/08 10:38:42;;;;;;;7.53;3.67;;;;;;;;;;5114045;28;20277;-65
2022/06/08 10:42:39;;;;;;;6.60;3.90;;;;;;;;;;5108774;28;20044;-65
2022/06/08 10:44:01;;;;;;;7.63;4.45;;;;;;;;;;5108028;28;20039;-64
2022/06/08 10:46:29;;;;;;;9.30;3.88;;;;;;;;;;5103251;28;20044;-64
2022/06/08 10:48:55;;;;;;;7.90;3.85;;;;;;;;;;5107593;28;20118;-64
2022/06/08 10:51:24;;;;;;;5.78;4.07;;;;;;;;;;5105283;28;20081;-64
2022/06/08 10:56:36;;;;;;;6.40;3.88;;;;;;;;;;5112946;28;20044;-64
2022/06/08 10:59:08;;;;;;;9.63;4.60;;;;;;;;;;5113904;28;20089;-65
2022/06/08 11:01:38;;;;;;;8.10;4.80;;;;;;;;;;5079776;28;20032;-64
2022/06/08 11:04:07;;;;;;;6.53;4.80;;;;;;;;;;5114062;28;20043;-65
2022/06/08 11:06:51;;;;;;;4.90;4.50;;;;;;;;;;5102151;28;20043;-65
2022/06/08 11:09:33;;;;;;;6.32;4.97;;;;;;;;;;5111554;28;20523;-65
2022/06/08 11:12:14;;;;;;;5.90;5.28;;;;;;;;;;5095099;28;20044;-64
2022/06/08 11:14:52;;;;;;;6.78;5.28;;;;;;;;;;5095882;28;20164;-65
2022/06/08 11:17:39;;;;;;;5.90;5.10;;;;;;;;;;5105288;28;20091;-65
2022/06/08 11:20:05;;;;;;;4.90;4.50;;;;;;;;;;5101971;28;20056;-64
2022/06/08 11:22:33;;;;;;;5.72;4.65;;;;;;;;;;5093025;28;20484;-65
2022/06/08 11:25:01;;;;;;;5.25;4.45;;;;;;;;;;5108314;28;20044;-65
2022/06/08 11:27:37;;;;;;;5.97;4.50;;;;;;;;;;5104199;28;20115;-64
2022/06/08 11:30:22;;;;;;;4.60;4.22;;;;;;;;;;5108794;28;20055;-64
2022/06/08 11:32:51;;;;;;;5.63;4.40;;;;;;;;;;5106282;28;21031;-64
2022/06/08 11:35:36;;;;;;;9.10;5.13;;;;;;;;;;5110615;28;20400;-65
2022/06/08 11:38:11;;;;;;;5.82;4.50;;;;;;;;;;5106508;28;20039;-65
2022/06/08 11:40:37;;;;;;;6.03;5.43;;;;;;;;;;5102374;28;20043;-65
2022/06/08 11:43:15;;;;;;;5.43;4.93;;;;;;;;;;5108426;28;20035;-64
2022/06/08 11:45:44;;;;;;;7.78;5.13;;;;;;;;;;5096376;28;20047;-64
2022/06/08 11:48:21;;;;;;;5.93;4.57;;;;;;;;;;5108360;28;20062;-64
2022/06/08 11:50:51;;;;;;;5.70;5.20;;;;;;;;;;5111838;28;20127;-65
2022/06/08 11:53:28;;;;;;;6.70;5.22;;;;;;;;;;5111539;28;20551;-64
2022/06/08 11:56:02;;;;;;;8.30;5.85;;;;;;;;;;5113139;28;20032;-64
2022/06/08 11:58:29;;;;;;;5.97;5.38;;;;;;;;;;5110879;28;20039;-65
2022/06/08 12:01:00;;;;;;;5.63;4.55;;;;;;;;;;5092557;28;20086;-64
2022/06/08 12:03:29;;;;;;;5.35;3.28;;;;;;;;;;5110544;28;20043;-64
2022/06/08 12:06:08;;;;;;;3.78;1.95;;;;;;;;;;5112834;28;20043;-65
2022/06/08 12:08:45;;;;;;;5.28;1.95;;;;;;;;;;5091411;28;20048;-65
2022/06/08 12:11:16;;;;;;;4.88;2.00;;;;;;;;;;5106022;28;20050;-64
2022/06/08 12:13:52;;;;;;;5.18;1.83;;;;;;;;;;5105640;27;20032;-64
2022/06/08 12:16:27;;;;;;;7.60;2.20;;;;;;;;;;5095167;28;20050;-64
2022/06/08 12:18:56;;;;;;;6.15;2.03;;;;;;;;;;5107884;28;20043;-64
2022/06/08 12:21:27;;;;;;;6.68;1.77;;;;;;;;;;5091877;28;20065;-64
2022/06/08 12:23:56;;;;;;;5.60;1.80;;;;;;;;;;5106932;27;20085;-64
2022/06/08 12:26:23;;;;;;;6.85;2.00;;;;;;;;;;5101119;27;20110;-64
2022/06/08 12:29:00;;;;;;;5.30;1.70;;;;;;;;;;5100220;28;20048;-64
2022/06/08 12:31:28;;;;;;;11.73;2.20;;;;;;;;;;5092454;27;20043;-64
2022/06/08 12:33:54;;;;;;;3.10;1.60;;;;;;;;;;5102984;28;20039;-65
2022/06/08 12:36:20;;;;;;;5.60;2.28;;;;;;;;;;5100940;28;20039;-65
2022/06/08 12:39:00;;;;;;;5.30;2.05;;;;;;;;;;5108298;28;20054;-65
2022/06/08 12:41:41;;;;;;;4.07;1.88;;;;;;;;;;5103837;27;20042;-65
2022/06/08 12:44:08;;;;;;;6.75;2.17;;;;;;;;;;5109660;28;20149;-65
2022/06/08 12:46:36;;;;;;;4.45;1.70;;;;;;;;;;5110982;28;20043;-65
2022/06/08 12:49:14;;;;;;;7.22;2.13;;;;;;;;;;5106497;28;20038;-65
2022/06/08 12:51:40;;;;;;;5.07;2.00;;;;;;;;;;5087130;28;20050;-65
2022/06/08 12:54:27;;;;;;;5.13;2.20;;;;;;;;;;5103307;28;20035;-65
2022/06/08 12:56:56;;;;;;;6.85;2.30;;;;;;;;;;5079261;28;20055;-65
2022/06/08 12:59:22;;;;;;;6.18;2.80;;;;;;;;;;5082655;28;20044;-63
2022/06/08 13:01:48;;;;;;;5.97;3.00;;;;;;;;;;5089295;28;20046;-63
2022/06/08 13:04:16;;;;;;;6.80;3.05;;;;;;;;;;5103679;28;20035;-63
2022/06/08 13:06:42;;;;;;;7.10;4.22;;;;;;;;;;5103752;28;20031;-63
2022/06/08 13:09:13;;;;;;;8.20;3.40;;;;;;;;;;5090396;28;20047;-63
2022/06/08 13:11:40;;;;;;;8.20;4.28;;;;;;;;;;5107464;28;20162;-63
2022/06/08 13:14:06;;;;;;;8.00;4.07;;;;;;;;;;5094008;28;20059;-65
2022/06/08 13:16:32;;;;;;;7.53;4.07;;;;;;;;;;5102494;28;20496;-65
2022/06/08 13:18:58;;;;;;;5.38;3.97;;;;;;;;;;5104453;28;20129;-65
2022/06/08 13:21:28;;;;;;;9.60;4.40;;;;;;;;;;5106199;28;20038;-65
2022/06/08 13:23:54;;;;;;;7.68;4.15;;;;;;;;;;5102295;28;20047;-66
2022/06/08 13:26:25;;;;;;;9.30;4.35;;;;;;;;;;5105415;28;20132;-65
2022/06/08 13:28:52;;;;;;;7.65;3.92;;;;;;;;;;5100519;28;20423;-65
2022/06/08 13:31:23;;;;;;;7.55;4.60;;;;;;;;;;5105590;28;20105;-65
2022/06/08 13:34:03;;;;;;;;;;;;;;;;;;5111100;28;20450;-65
2022/06/08 13:36:29;;;;;;;9.65;4.03;;;;;;;;;;5108144;28;20007;-65
2022/06/08 13:39:13;;;;;;;9.38;4.28;;;;;;;;;;5107787;28;20489;-64
2022/06/08 13:41:41;;;;;;;9.02;4.18;;;;;;;;;;5109768;28;20883;-64
2022/06/08 13:44:25;;;;;;;10.20;4.80;;;;;;;;;;5109959;28;20039;-64
2022/06/08 13:46:53;;;;;;;9.77;4.35;;;;;;;;;;5099901;28;20055;-65
2022/06/08 13:49:19;;;;;;;11.23;4.55;;;;;;;;;;5086922;28;20040;-64
2022/06/08 13:51:45;;;;;;;10.52;4.65;;;;;;;;;;5108685;28;20092;-64
2022/06/08 13:54:18;;;;;;;12.95;5.35;;;;;;;;;;5104833;28;20488;-65
2022/06/08 13:56:44;;;;;;;8.52;4.95;;;;;;;;;;5102615;28;20039;-64
2022/06/08 13:59:10;;;;;;;8.98;5.53;;;;;;;;;;5101640;28;20034;-65
2022/06/08 14:01:38;;;;;;;8.98;5.28;;;;;;;;;;5109493;28;20036;-64
2022/06/08 14:04:08;;;;;;;11.00;5.93;;;;;;;;;;5111049;28;20047;-65
2022/06/08 14:15:09;;;;;;;3.65;1.67;;;;;;;;;;5085711;28;20040;-65
2022/06/08 14:17:36;;;;;;;4.75;1.95;;;;;;;;;;5081582;28;20028;-65
2022/06/08 14:20:04;;;;;;;5.57;2.10;;;;;;;;;;5091559;28;20048;-65
2022/06/08 14:22:34;;;;;;;6.05;3.13;;;;;;;;;;5096942;28;20648;-65
2022/06/08 14:25:04;;;;;;;6.85;3.17;;;;;;;;;;5089458;28;20048;-64
2022/06/08 14:27:33;;;;;;;7.23;2.97;;;;;;;;;;5091575;28;20079;-64
2022/06/08 14:29:59;;;;;;;10.77;4.00;;;;;;;;;;5090445;28;20059;-65
2022/06/08 14:32:37;;;;;;;6.93;3.60;;;;;;;;;;5092083;28;20051;-64
2022/06/08 14:35:05;;;;;;;7.18;4.38;;;;;;;;;;5085766;28;20034;-65
2022/06/08 14:37:33;;;;;;;9.00;4.60;;;;;;;;;;5092363;28;20032;-65
2022/06/08 14:39:59;;;;;;;10.60;4.78;;;;;;;;;;5092829;28;20044;-66
2022/06/08 14:42:25;;;;;;;9.57;5.38;;;;;;;;;;5090723;28;20040;-65
2022/06/08 14:44:52;;;;;;;9.50;4.60;;;;;;;;;;5080714;28;20040;-66
2022/06/08 14:47:21;;;;;;;11.10;5.35;;;;;;;;;;5092364;28;20097;-66
2022/06/08 14:49:47;;;;;;;8.05;5.38;;;;;;;;;;5090096;28;20040;-65
2022/06/08 14:52:15;;;;;;;11.35;5.78;;;;;;;;;;5087336;28;20059;-65
2022/06/08 14:54:41;;;;;;;6.57;5.00;;;;;;;;;;5064348;28;20043;-65
2022/06/08 14:57:20;;;;;;;8.38;4.43;;;;;;;;;;5089871;28;20046;-65
2022/06/08 14:59:46;;;;;;;9.13;4.88;;;;;;;;;;5088349;28;20131;-65
2022/06/08 15:02:21;;;;;;;13.10;4.32;;;;;;;;;;5090632;28;20052;-65
2022/06/08 15:04:48;;;;;;;8.95;4.38;;;;;;;;;;5086643;28;20053;-65
2022/06/08 15:07:14;;;;;;;7.68;4.20;;;;;;;;;;5084952;28;20036;-65
2022/06/08 15:09:40;;;;;;;8.50;4.60;;;;;;;;;;5085274;28;20085;-65